createdAt,value
2023-03-04T00:02:03.293Z,70.86
2023-03-04T00:05:07.009Z,70.81
2023-03-04T00:08:09.787Z,70.55
2023-03-04T00:11:13.892Z,70.41
2023-03-04T00:14:16.710Z,70.14
2023-03-04T00:17:19.464Z,70.25
2023-03-04T00:20:22.215Z,70.38
2023-03-04T00:23:25.373Z,70.79
2023-03-04T00:26:29.574Z,70.80
2023-03-04T00:29:32.324Z,70.08
2023-03-04T00:32:35.105Z,70.39
2023-03-04T00:35:37.875Z,70.90
2023-03-04T00:38:40.743Z,70.06
2023-03-04T00:41:44.762Z,70.17
2023-03-04T00:44:47.546Z,70.48
2023-03-04T00:47:50.260Z,70.45
2023-03-04T00:50:54.039Z,70.31
2023-03-04T00:53:58.516Z,70.25
2023-03-04T00:57:03.999Z,70.20
2023-03-04T01:00:08.219Z,70.36
2023-03-04T01:03:11.100Z,71.29
2023-03-04T01:06:14.233Z,71.08
2023-03-04T01:09:17.087Z,71.57
2023-03-04T01:12:21.553Z,71.94
2023-03-04T01:15:24.812Z,71.65
2023-03-04T01:18:28.909Z,71.87
2023-03-04T01:21:31.793Z,71.77
2023-03-04T01:24:34.670Z,71.69
2023-03-04T01:27:38.885Z,71.43
2023-03-04T01:30:41.724Z,71.45
2023-03-04T01:33:44.492Z,71.95
2023-03-04T01:36:47.409Z,72.45
2023-03-04T01:39:50.392Z,73.25
2023-03-04T01:42:54.587Z,73.38
2023-03-04T01:45:59.353Z,74.47
2023-03-04T01:49:02.381Z,74.98
2023-03-04T01:52:05.303Z,75.68
2023-03-04T01:55:16.517Z,76.28
2023-03-04T01:58:20.716Z,77.19
2023-03-04T02:01:23.666Z,76.87
2023-03-04T02:04:29.345Z,76.25
2023-03-04T02:07:32.505Z,76.42
2023-03-04T02:10:36.109Z,75.93
2023-03-04T02:13:40.360Z,75.50
2023-03-04T02:16:43.162Z,75.74
2023-03-04T02:19:53.250Z,75.61
2023-03-04T02:23:04.670Z,75.96
2023-03-04T02:26:19.549Z,75.27
2023-03-04T02:29:22.557Z,74.75
2023-03-04T02:32:25.464Z,75.23
2023-03-04T02:35:29.018Z,76.13
2023-03-04T02:38:31.861Z,76.14
2023-03-04T02:41:36.121Z,76.51
2023-03-04T02:44:40.251Z,76.28
2023-03-04T02:47:43.113Z,75.99
2023-03-04T02:50:50.918Z,76.13
2023-03-04T02:53:54.220Z,76.29
2023-03-04T02:57:01.718Z,76.78
2023-03-04T03:00:05.541Z,76.93
2023-03-04T03:03:08.735Z,76.53
2023-03-04T03:06:11.622Z,76.27
2023-03-04T03:09:14.512Z,76.41
2023-03-04T03:12:18.772Z,76.03
2023-03-04T03:15:21.907Z,75.56
2023-03-04T03:18:24.686Z,74.73
2023-03-04T03:21:27.701Z,75.47
2023-03-04T03:24:30.541Z,75.01
2023-03-04T03:27:34.884Z,74.92
2023-03-04T03:30:37.752Z,75.22
2023-03-04T03:33:40.609Z,74.76
2023-03-04T03:36:43.525Z,74.61
2023-03-04T03:39:46.401Z,74.68
2023-03-04T03:42:50.787Z,72.74
2023-03-04T03:45:53.712Z,72.85
2023-03-04T03:48:56.507Z,72.57
2023-03-04T03:51:59.378Z,72.49
2023-03-04T03:55:03.009Z,73.02
2023-03-04T03:58:07.646Z,72.10
2023-03-04T04:01:10.630Z,73.00
2023-03-04T04:04:13.721Z,73.54
2023-03-04T04:07:16.629Z,74.60
2023-03-04T04:10:20.572Z,74.90
2023-03-04T04:13:24.698Z,74.75
2023-03-04T04:16:27.749Z,74.19
2023-03-04T04:19:30.640Z,74.73
2023-03-04T04:22:33.464Z,74.36
2023-03-04T04:25:36.269Z,74.90
2023-03-04T04:28:40.504Z,74.44
2023-03-04T04:31:43.462Z,74.92
2023-03-04T04:34:46.299Z,74.50
2023-03-04T04:37:49.223Z,74.73
2023-03-04T04:40:52.029Z,74.23
2023-03-04T04:43:56.234Z,73.45
2023-03-04T04:46:59.031Z,73.84
2023-03-04T04:50:02.202Z,74.33
2023-03-04T04:53:05.031Z,75.59
2023-03-04T04:56:12.594Z,76.02
2023-03-04T04:59:16.892Z,75.68
2023-03-04T05:02:19.705Z,76.69
2023-03-04T05:05:22.477Z,75.56
2023-03-04T05:08:25.283Z,74.30
2023-03-04T05:11:28.065Z,75.31
2023-03-04T05:14:32.333Z,75.31
2023-03-04T05:17:35.137Z,76.23
2023-03-04T05:20:37.977Z,75.75
2023-03-04T05:23:44.528Z,76.09
2023-03-04T05:26:47.308Z,75.54
2023-03-04T05:29:51.446Z,74.91
2023-03-04T05:32:54.286Z,75.16
2023-03-04T05:35:57.047Z,75.19
2023-03-04T05:38:59.953Z,75.25
2023-03-04T05:42:02.687Z,74.64
2023-03-04T05:45:08.436Z,75.18
2023-03-04T05:48:11.435Z,72.80
2023-03-04T05:51:14.336Z,72.98
2023-03-04T05:54:17.271Z,71.54
2023-03-04T05:57:20.118Z,72.07
2023-03-04T06:00:24.296Z,72.15
2023-03-04T06:03:27.092Z,71.73
2023-03-04T06:06:29.978Z,71.31
2023-03-04T06:09:32.887Z,71.24
2023-03-04T06:12:35.676Z,72.01
2023-03-04T06:15:40.968Z,70.82
2023-03-04T06:18:44.138Z,71.66
2023-03-04T06:21:47.067Z,72.10
2023-03-04T06:24:49.976Z,74.17
2023-03-04T06:27:54.762Z,75.28
2023-03-04T06:30:59.417Z,75.45
2023-03-04T06:34:02.278Z,75.50
2023-03-04T06:37:05.113Z,75.52
2023-03-04T06:40:09.171Z,75.25
2023-03-04T06:43:11.984Z,73.73
2023-03-04T06:46:16.296Z,71.96
2023-03-04T06:49:19.201Z,70.44
2023-03-04T06:52:22.164Z,68.81
2023-03-04T06:55:25.054Z,68.72
2023-03-04T06:58:28.048Z,70.28
2023-03-04T07:01:32.170Z,71.34
2023-03-04T07:04:34.967Z,72.07
2023-03-04T07:07:37.874Z,72.84
2023-03-04T07:10:40.734Z,73.82
2023-03-04T07:13:43.922Z,74.36
2023-03-04T07:16:48.174Z,74.47
2023-03-04T07:19:50.981Z,75.38
2023-03-04T07:22:53.792Z,75.75
2023-03-04T07:25:59.379Z,75.90
2023-03-04T07:29:02.536Z,76.34
2023-03-04T07:32:10.112Z,76.46
2023-03-04T07:35:13.027Z,77.14
2023-03-04T07:38:15.702Z,77.14
2023-03-04T07:41:19.746Z,76.90
2023-03-04T07:44:22.777Z,77.73
2023-03-04T07:47:27.023Z,77.65
2023-03-04T07:50:30.054Z,77.56
2023-03-04T07:53:33.062Z,77.70
2023-03-04T07:56:36.110Z,78.06
2023-03-04T07:59:38.840Z,77.80
2023-03-04T08:02:43.424Z,77.31
2023-03-04T08:05:46.431Z,77.46
2023-03-04T08:08:49.726Z,77.43
2023-03-04T08:11:52.694Z,76.65
2023-03-04T08:14:55.420Z,76.78
2023-03-04T08:17:59.488Z,77.30
2023-03-04T08:21:02.323Z,76.89
2023-03-04T08:24:08.454Z,77.49
2023-03-04T08:27:11.779Z,76.80
2023-03-04T08:30:14.981Z,77.20
2023-03-04T08:33:19.081Z,77.25
2023-03-04T08:36:22.358Z,76.77
2023-03-04T08:39:25.099Z,76.82
2023-03-04T08:42:27.856Z,76.63
2023-03-04T08:45:30.719Z,76.60
2023-03-04T08:48:35.318Z,77.36
2023-03-04T08:51:38.085Z,76.80
2023-03-04T08:54:40.868Z,77.08
2023-03-04T08:57:43.606Z,77.07
2023-03-04T09:00:49.452Z,76.79
2023-03-04T09:03:53.769Z,76.99
2023-03-04T09:06:56.646Z,77.17
2023-03-04T09:09:59.543Z,77.33
2023-03-04T09:13:02.428Z,76.79
2023-03-04T09:16:10.495Z,77.34
2023-03-04T09:19:14.692Z,76.42
2023-03-04T09:22:17.617Z,75.73
2023-03-04T09:25:20.373Z,74.93
2023-03-04T09:28:23.088Z,75.76
2023-03-04T09:31:26.793Z,75.30
2023-03-04T09:34:31.041Z,74.64
2023-03-04T09:37:33.889Z,73.91
2023-03-04T09:40:42.272Z,73.38
2023-03-04T09:43:46.442Z,74.86
2023-03-04T09:46:50.244Z,73.20
2023-03-04T09:49:59.343Z,72.40
2023-03-04T09:53:17.344Z,73.16
2023-03-04T09:56:20.771Z,72.93
2023-03-04T09:59:26.878Z,73.31
2023-03-04T10:02:43.165Z,72.18
2023-03-04T10:05:54.929Z,70.25
2023-03-04T10:09:02.194Z,70.43
2023-03-04T10:12:11.971Z,69.43
2023-03-04T10:15:24.788Z,69.85
2023-03-04T10:18:33.396Z,71.16
2023-03-04T10:21:43.182Z,69.22
2023-03-04T10:24:47.674Z,68.10
2023-03-04T10:27:53.862Z,70.01
2023-03-04T10:31:03.425Z,69.42
2023-03-04T10:34:07.322Z,66.86
2023-03-04T10:37:12.198Z,67.90
2023-03-04T10:40:26.690Z,67.45
2023-03-04T10:43:30.779Z,66.58
2023-03-04T10:46:33.644Z,67.03
2023-03-04T10:49:51.634Z,66.36
2023-03-04T10:52:56.809Z,66.63
2023-03-04T10:55:59.671Z,66.06
2023-03-04T10:59:32.177Z,66.12
2023-03-04T11:02:36.713Z,64.06
2023-03-04T11:05:39.634Z,64.56
2023-03-04T11:08:44.167Z,64.12
2023-03-04T11:11:46.973Z,64.16
2023-03-04T11:14:51.948Z,63.86
2023-03-04T11:17:58.081Z,64.92
2023-03-04T11:21:01.924Z,64.49
2023-03-04T11:24:27.474Z,64.20
2023-03-04T11:27:45.724Z,64.87
2023-03-04T11:30:53.209Z,64.14
2023-03-04T11:34:02.440Z,65.30
2023-03-04T11:37:10.648Z,64.64
2023-03-04T11:40:35.005Z,64.57
2023-03-04T11:43:40.181Z,65.16
2023-03-04T11:47:16.806Z,65.96
2023-03-04T11:50:29.010Z,65.54
2023-03-04T11:53:41.833Z,66.01
2023-03-04T11:56:48.817Z,65.67
2023-03-04T12:00:04.483Z,64.92
2023-03-04T12:03:33.586Z,65.21
2023-03-04T12:06:45.413Z,64.82
2023-03-04T12:10:05.013Z,66.16
2023-03-04T12:13:52.372Z,65.79
2023-03-04T12:17:17.041Z,65.91
2023-03-04T12:20:42.389Z,66.20
2023-03-04T12:24:11.620Z,65.14
2023-03-04T12:27:23.020Z,65.01
2023-03-04T12:30:41.466Z,64.88
2023-03-04T12:33:58.486Z,65.67
2023-03-04T12:37:35.709Z,64.74
2023-03-04T12:40:45.462Z,65.79
2023-03-04T12:43:58.257Z,66.15
2023-03-04T12:47:21.600Z,66.91
2023-03-04T12:50:38.144Z,66.60
2023-03-04T12:53:49.279Z,65.96
2023-03-04T12:56:56.438Z,65.31
2023-03-04T13:00:05.955Z,64.51
2023-03-04T13:03:16.767Z,64.91
2023-03-04T13:06:35.820Z,65.14
2023-03-04T13:09:48.489Z,65.12
2023-03-04T13:12:53.524Z,64.26
2023-03-04T13:16:03.354Z,64.53
2023-03-04T13:19:47.696Z,63.95
2023-03-04T13:22:57.295Z,65.34
2023-03-04T13:26:22.415Z,63.93
2023-03-04T13:29:37.154Z,64.32
2023-03-04T13:32:43.237Z,64.00
2023-03-04T13:35:52.708Z,64.87
2023-03-04T13:39:01.616Z,63.37
2023-03-04T13:42:44.097Z,64.86
2023-03-04T13:45:47.008Z,63.87
2023-03-04T13:49:03.965Z,64.20
2023-03-04T13:52:44.481Z,64.70
2023-03-04T13:56:08.076Z,64.74
2023-03-04T13:59:25.544Z,63.76
2023-03-04T14:02:34.710Z,63.50
2023-03-04T14:05:37.481Z,63.44
2023-03-04T14:08:40.487Z,62.60
2023-03-04T14:11:45.375Z,62.90
2023-03-04T14:14:52.576Z,63.76
2023-03-04T14:17:57.154Z,63.32
2023-03-04T14:21:01.604Z,64.81
2023-03-04T14:24:08.470Z,65.75
2023-03-04T14:27:15.267Z,65.31
2023-03-04T14:30:39.093Z,64.82
2023-03-04T14:33:47.777Z,64.74
2023-03-04T14:36:51.005Z,64.46
2023-03-04T14:39:57.416Z,64.22
2023-03-04T14:43:06.365Z,64.43
2023-03-04T14:46:14.515Z,64.32
2023-03-04T14:49:18.199Z,66.81
2023-03-04T14:52:32.966Z,65.41
2023-03-04T14:55:36.806Z,65.02
2023-03-04T14:58:54.596Z,64.26
2023-03-04T15:02:18.272Z,64.86
2023-03-04T15:05:26.570Z,64.45
2023-03-04T15:08:38.775Z,65.86
2023-03-04T15:11:48.042Z,65.63
2023-03-04T15:14:54.783Z,66.12
2023-03-04T15:18:01.553Z,66.32
2023-03-04T15:21:07.484Z,65.74
2023-03-04T15:24:13.616Z,65.63
2023-03-04T15:27:17.562Z,65.88
2023-03-04T15:30:24.768Z,66.12
2023-03-04T15:33:27.765Z,65.25
2023-03-04T15:36:30.546Z,65.80
2023-03-04T15:39:34.044Z,65.37
2023-03-04T15:42:36.921Z,65.75
2023-03-04T15:45:41.377Z,65.41
2023-03-04T15:48:45.472Z,65.40
2023-03-04T15:51:50.307Z,66.08
2023-03-04T15:54:53.170Z,66.28
2023-03-04T15:57:57.825Z,66.27
2023-03-04T16:01:02.230Z,66.55
2023-03-04T16:04:05.425Z,65.12
2023-03-04T16:07:08.640Z,65.84
2023-03-04T16:10:19.347Z,66.17
2023-03-04T16:13:24.239Z,65.55
2023-03-04T16:16:28.542Z,65.10
2023-03-04T16:19:31.651Z,65.36
2023-03-04T16:22:34.730Z,65.91
2023-03-04T16:25:37.929Z,65.49
2023-03-04T16:28:41.037Z,66.50
2023-03-04T16:31:45.510Z,67.11
2023-03-04T16:34:50.429Z,66.97
2023-03-04T16:37:53.665Z,67.14
2023-03-04T16:40:57.832Z,67.39
2023-03-04T16:44:01.572Z,67.67
2023-03-04T16:47:07.728Z,67.88
2023-03-04T16:50:14.630Z,67.38
2023-03-04T16:53:26.013Z,67.60
2023-03-04T16:56:29.249Z,67.37
2023-03-04T16:59:32.343Z,68.42
2023-03-04T17:02:36.906Z,67.75
2023-03-04T17:05:39.810Z,68.40
2023-03-04T17:08:42.834Z,69.00
2023-03-04T17:11:46.292Z,68.82
2023-03-04T17:14:49.466Z,67.75
2023-03-04T17:17:54.087Z,68.30
2023-03-04T17:21:03.376Z,68.25
2023-03-04T17:24:11.054Z,67.96
2023-03-04T17:27:14.391Z,67.94
2023-03-04T17:30:17.605Z,68.38
2023-03-04T17:33:22.304Z,68.62
2023-03-04T17:36:25.189Z,68.43
2023-03-04T17:39:28.060Z,68.30
2023-03-04T17:42:30.888Z,68.85
2023-03-04T17:45:33.705Z,68.14
2023-03-04T17:48:38.241Z,68.26
2023-03-04T17:51:43.931Z,68.22
2023-03-04T17:54:47.450Z,68.76
2023-03-04T17:57:52.987Z,68.51
2023-03-04T18:01:02.060Z,67.94
2023-03-04T18:04:06.399Z,68.02
2023-03-04T18:07:09.641Z,68.33
2023-03-04T18:10:13.165Z,68.50
2023-03-04T18:13:16.296Z,67.71
2023-03-04T18:16:23.514Z,68.54
2023-03-04T18:19:28.315Z,68.67
2023-03-04T18:22:31.625Z,69.11
2023-03-04T18:25:34.444Z,69.02
2023-03-04T18:28:37.396Z,68.17
2023-03-04T18:31:41.547Z,67.34
2023-03-04T18:34:45.747Z,68.12
2023-03-04T18:37:49.177Z,67.96
2023-03-04T18:40:53.083Z,67.64
2023-03-04T18:43:56.175Z,68.67
2023-03-04T18:46:59.410Z,68.52
2023-03-04T18:50:03.758Z,68.00
2023-03-04T18:53:06.656Z,68.49
2023-03-04T18:56:14.733Z,67.41
2023-03-04T18:59:21.235Z,68.63
2023-03-04T19:02:28.494Z,69.04
2023-03-04T19:05:34.020Z,70.10
2023-03-04T19:08:36.952Z,69.79
2023-03-04T19:11:39.714Z,70.61
2023-03-04T19:14:42.392Z,71.13
2023-03-04T19:17:46.272Z,71.05
2023-03-04T19:20:50.684Z,71.45
2023-03-04T19:23:53.754Z,70.22
2023-03-04T19:26:56.516Z,70.82
2023-03-04T19:29:59.504Z,70.48
2023-03-04T19:33:02.468Z,69.36
2023-03-04T19:36:08.377Z,70.57
2023-03-04T19:39:11.614Z,71.93
2023-03-04T19:42:14.719Z,72.13
2023-03-04T19:45:17.890Z,72.46
2023-03-04T19:48:20.694Z,72.32
2023-03-04T19:51:27.135Z,72.23
2023-03-04T19:54:30.632Z,70.15
2023-03-04T19:57:34.100Z,69.64
2023-03-04T20:00:37.119Z,69.40
2023-03-04T20:03:40.070Z,67.80
2023-03-04T20:06:47.121Z,68.52
2023-03-04T20:09:50.266Z,68.35
2023-03-04T20:12:53.455Z,68.81
2023-03-04T20:15:56.341Z,68.56
2023-03-04T20:18:59.806Z,68.30
2023-03-04T20:22:07.052Z,69.44
2023-03-04T20:25:10.432Z,67.87
2023-03-04T20:28:13.300Z,68.24
2023-03-04T20:31:20.695Z,67.38
2023-03-04T20:34:23.839Z,67.13
2023-03-04T20:37:28.014Z,66.67
2023-03-04T20:40:30.699Z,67.02
2023-03-04T20:43:33.634Z,66.71
2023-03-04T20:46:41.279Z,66.66
2023-03-04T20:49:44.664Z,67.41
2023-03-04T20:52:49.007Z,67.41
2023-03-04T20:55:52.859Z,68.58
2023-03-04T20:58:56.851Z,67.64
2023-03-04T21:01:59.976Z,68.26
2023-03-04T21:05:03.034Z,69.51
2023-03-04T21:08:07.530Z,69.64
2023-03-04T21:11:12.394Z,70.53
2023-03-04T21:14:19.263Z,70.36
2023-03-04T21:17:22.168Z,70.55
2023-03-04T21:20:25.153Z,70.52
2023-03-04T21:23:29.319Z,70.68
2023-03-04T21:26:32.511Z,71.34
2023-03-04T21:29:35.445Z,71.76
2023-03-04T21:32:38.479Z,71.74
2023-03-04T21:35:41.554Z,70.26
2023-03-04T21:38:46.693Z,71.46
2023-03-04T21:41:49.859Z,72.22
2023-03-04T21:44:52.672Z,71.46
2023-03-04T21:47:55.561Z,71.20
2023-03-04T21:51:02.852Z,72.50
2023-03-04T21:54:07.681Z,73.44
2023-03-04T21:57:10.694Z,73.35
2023-03-04T22:00:15.655Z,72.76
2023-03-04T22:03:19.053Z,73.46
2023-03-04T22:06:24.269Z,73.98
2023-03-04T22:09:28.400Z,74.56
2023-03-04T22:12:31.116Z,74.12
2023-03-04T22:15:33.998Z,73.22
2023-03-04T22:18:39.835Z,73.27
2023-03-04T22:21:42.642Z,73.66
2023-03-04T22:24:46.801Z,73.07
2023-03-04T22:27:49.630Z,73.57
2023-03-04T22:30:52.911Z,72.91
2023-03-04T22:33:55.679Z,72.94
2023-03-04T22:36:58.379Z,73.11
2023-03-04T22:40:02.603Z,73.23
2023-03-04T22:43:05.405Z,74.29
2023-03-04T22:46:19.562Z,75.51
2023-03-04T22:49:22.412Z,74.89
2023-03-04T22:52:25.209Z,74.30
2023-03-04T22:55:29.330Z,74.80
2023-03-04T22:58:32.224Z,74.92
2023-03-04T23:01:35.004Z,74.84
2023-03-04T23:04:37.735Z,75.24
2023-03-04T23:07:41.176Z,73.93
2023-03-04T23:10:45.323Z,72.91
2023-03-04T23:13:48.880Z,73.22
2023-03-04T23:16:51.964Z,72.87
2023-03-04T23:19:54.891Z,72.96
2023-03-04T23:22:57.694Z,73.24
2023-03-04T23:26:02.382Z,73.37
2023-03-04T23:29:06.789Z,74.76
2023-03-04T23:32:09.792Z,74.60
2023-03-04T23:35:12.735Z,75.24
2023-03-04T23:38:15.703Z,75.89
2023-03-04T23:41:21.966Z,75.29
2023-03-04T23:44:25.101Z,75.78
2023-03-04T23:47:28.016Z,74.43
2023-03-04T23:50:32.203Z,73.07
2023-03-04T23:53:35.191Z,73.80
2023-03-04T23:56:39.535Z,74.17
2023-03-04T23:59:42.307Z,74.68
